All
Ronneby (F 17) Airport (Ronneby) RNB Weather
|
Ronneby (RNB / ESDF)
Clear skies
Calm winds |
|
33 °F |
RNB Terminal Area Forecast
| Date | Time (CEST) | Flight Rules | Wind Dir. | Speed | Type | Height AGL (ft) | Visibility | Remarks | ||||||
|---|---|---|---|---|---|---|---|---|---|---|---|---|---|---|
| 10-May | 01:00PM | VFR | 10° | 3 kt | Broken | 4,000 | >= 6 miles | (30% chance) | ||||||
| 10-May | 12:00PM | VFR | 10° | 3 kt | Broken | 4,000 | >= 6 miles | (30% chance) | ||||||
| 10-May | 11:00AM | VFR | 10° | 3 kt | Broken | 4,000 | >= 6 miles | (30% chance) | ||||||
| 10-May | 10:00AM | VFR | 10° | 3 kt | Clouds and Visibility are OK | >= 6 miles | ||||||||
| 10-May | 09:00AM | VFR | 10° | 3 kt | Clouds and Visibility are OK | >= 6 miles | ||||||||
| 10-May | 08:00AM | VFR | 10° | 3 kt | Clouds and Visibility are OK | >= 6 miles | ||||||||
| 10-May | 07:00AM | VFR | 10° | 3 kt | Clouds and Visibility are OK | >= 6 miles | ||||||||
Recent RNB METAR history
| Date | Time (CEST) | Flight Rules | Wind Dir. | Speed | Type | Height AGL (ft) | Visibility | Temp (°C) | Temp (°F) | Dew Point (°C) | Dew Point (°F) | Rel. Humid. | Pressure | Density Altitude | Remarks |
|---|---|---|---|---|---|---|---|---|---|---|---|---|---|---|---|
| 10-May | 06:20AM | VFR | 20° | 3 kt | 10000 meters | 1° | 33° | 1° | 33° | 100% | 1017 mb | -1,601 ft | |||
| 10-May | 05:50AM | VFR | 20° | 3 kt | 10000 meters | 0° | 32° | 0° | 32° | 100% | 1017 mb | -1,721 ft | |||
| 10-May | 05:20AM | VFR | 30° | 3 kt | 10000 meters | -1° | 30° | -1° | 30° | 100% | 1017 mb | -1,841 ft | |||
| 10-May | 04:50AM | VFR | 30° | 3 kt | 10000 meters | -2° | 28° | -2° | 28° | 100% | 1018 mb | -1,991 ft | |||
| 10-May | 04:20AM | VFR | 20° | 4 kt | 10000 meters | -2° | 28° | -2° | 28° | 100% | 1018 mb | -1,991 ft | |||
| 10-May | 03:50AM | VFR | 20° | 1 kt | 10000 meters | -1° | 30° | -1° | 30° | 100% | 1019 mb | -1,900 ft | |||
| 10-May | 03:20AM | VFR | 30° | 3 kt | 10000 meters | -1° | 30° | -1° | 30° | 100% | 1019 mb | -1,900 ft | |||
| 10-May | 02:50AM | VFR | 20° | 3 kt | 10000 meters | -1° | 30° | -1° | 30° | 100% | 1019 mb | -1,900 ft | |||
| 10-May | 02:20AM | VFR | 360° | 2 kt | 10000 meters | -1° | 30° | -1° | 30° | 100% | 1020 mb | -1,930 ft | |||
| 10-May | 01:50AM | VFR | 360° | 5 kt | 10000 meters | 0° | 32° | 0° | 32° | 100% | 1020 mb | -1,810 ft | |||
| 10-May | 01:20AM | VFR | 360° | 5 kt | 10000 meters | 1° | 33° | 1° | 33° | 100% | 1020 mb | -1,690 ft | |||
| 10-May | 12:50AM | VFR | 10° | 2 kt | 10000 meters | 1° | 33° | 1° | 33° | 100% | 1020 mb | -1,690 ft | |||
| 10-May | 12:20AM | VFR | 10° | 4 kt | 10000 meters | 2° | 35° | 1° | 33° | 93% | 1020 mb | -1,570 ft | |||
| 09-May | 11:50PM | VFR | 10° | 4 kt | 10000 meters | 2° | 35° | 2° | 35° | 100% | 1021 mb | -1,599 ft | |||
| 09-May | 11:20PM | VFR | 20° | 3 kt | 10000 meters | 2° | 35° | 1° | 33° | 93% | 1021 mb | -1,599 ft | |||
| 09-May | 10:50PM | VFR | 20° | 1 kt | 10000 meters | 4° | 39° | 1° | 33° | 81% | 1021 mb | -1,359 ft | |||
| 09-May | 10:20PM | VFR | Calm | 10000 meters | 5° | 41° | 2° | 35° | 81% | 1021 mb | -1,239 ft | ||||
| 09-May | 09:50PM | VFR | Calm | 10000 meters | 5° | 41° | 2° | 35° | 81% | 1021 mb | -1,239 ft | ||||
| 09-May | 09:20PM | VFR | 170° | 3 kt | 10000 meters | 6° | 42° | 1° | 33° | 70% | 1021 mb | -1,119 ft | |||
| 09-May | 08:50PM | VFR | 150° | 4 kt | 10000 meters | 8° | 46° | 1° | 33° | 61% | 1021 mb | -879 ft | |||
| 09-May | 08:20PM | VFR | 150° | 5 kt | 10000 meters | 9° | 48° | 0° | 32° | 53% | 1021 mb | -759 ft | |||
| 09-May | 07:50PM | VFR | 160° | 6 kt | 10000 meters | 11° | 51° | 0° | 32° | 47% | 1021 mb | -519 ft | |||
| 09-May | 07:20PM | VFR | 160° | 6 kt | 10000 meters | 11° | 51° | 2° | 35° | 54% | 1021 mb | -519 ft | |||
| 09-May | 06:50PM | VFR | 160° | 7 kt | 10000 meters | 12° | 53° | 1° | 33° | 47% | 1021 mb | -399 ft |
Login
| Your browser is unsupported. upgrade your browser |
